Time;durP1;ratioP1;P1;durP2;ratioP2;P2;SDS_P1;SDS_P2;PMS_P1;PMS_P2;Temp;Humidity;BMP_temperature;BMP_pressure;BME280_temperature;BME280_humidity;BME280_pressure;Samples;Min_cycle;Max_cycle;Signal;HPM_P1;HPM_P2
2022/11/15 00:01:06;;;;;;;;;;;8.90;97.50;;;;;;5056047;28;19929;-74
2022/11/15 00:03:33;;;;;;;;;;;8.90;97.50;;;;;;5050470;28;19940;-74
2022/11/15 00:06:01;;;;;;;;;;;8.90;97.60;;;;;;5053995;28;19936;-73
2022/11/15 00:08:31;;;;;;;;;;;8.90;97.60;;;;;;5054799;28;19932;-76
2022/11/15 00:10:58;;;;;;;;;;;8.90;97.70;;;;;;5053934;28;20396;-74
2022/11/15 00:13:24;;;;;;;;;;;8.80;97.70;;;;;;5056039;28;19932;-74
2022/11/15 00:15:51;;;;;;;;;;;8.90;97.80;;;;;;5054214;28;19925;-75
2022/11/15 00:18:18;;;;;;;;;;;8.90;97.80;;;;;;5051714;28;19929;-74
2022/11/15 00:20:44;;;;;;;;;;;8.90;97.80;;;;;;5053558;28;19935;-74
2022/11/15 00:23:11;;;;;;;;;;;8.90;97.80;;;;;;5055950;28;19929;-74
2022/11/15 00:25:39;;;;;;;;;;;8.90;97.80;;;;;;5050092;28;20526;-74
2022/11/15 00:28:05;;;;;;;;;;;8.90;97.80;;;;;;5053989;28;20745;-74
2022/11/15 00:30:32;;;;;;;;;;;8.90;97.80;;;;;;5055926;28;19933;-75
2022/11/15 00:33:02;;;;;;;;;;;8.90;97.80;;;;;;5052343;28;19945;-75
2022/11/15 00:35:28;;;;;;;;;;;8.90;97.80;;;;;;5051392;28;19939;-76
2022/11/15 00:37:55;;;;;;;;;;;8.90;97.80;;;;;;5053107;28;20033;-75
2022/11/15 00:40:22;;;;;;;;;;;8.90;97.80;;;;;;5058579;28;19955;-73
2022/11/15 00:42:49;;;;;;;;;;;8.90;97.80;;;;;;5059364;28;19939;-73
2022/11/15 00:45:16;;;;;;;;;;;8.90;97.80;;;;;;5055044;28;20029;-74
2022/11/15 00:47:44;;;;;;;;;;;8.90;97.80;;;;;;5054265;28;19929;-74
2022/11/15 00:50:11;;;;;;;;;;;8.90;97.80;;;;;;5061204;28;19928;-74
2022/11/15 00:52:37;;;;;;;;;;;8.90;97.90;;;;;;5058359;28;19948;-74
2022/11/15 00:55:04;;;;;;;;;;;8.90;97.80;;;;;;5058949;28;19929;-74
2022/11/15 00:57:31;;;;;;;;;;;8.90;97.80;;;;;;5053544;28;19933;-74
2022/11/15 00:59:59;;;;;;;;;;;8.90;97.90;;;;;;5060709;28;19943;-75
2022/11/15 01:02:25;;;;;;;;;;;8.90;98.20;;;;;;5054895;28;19928;-75
2022/11/15 01:04:52;;;;;;;;;;;8.80;97.80;;;;;;5055649;28;19928;-73
2022/11/15 01:07:18;;;;;;;;;;;8.90;97.80;;;;;;5054199;28;19932;-74
2022/11/15 01:09:45;;;;;;;;;;;8.90;97.80;;;;;;5056497;28;19936;-75
2022/11/15 01:12:11;;;;;;;;;;;8.90;97.80;;;;;;5060375;28;19929;-74
2022/11/15 01:14:38;;;;;;;;;;;8.90;97.80;;;;;;5057815;28;19945;-75
2022/11/15 01:17:06;;;;;;;;;;;8.90;97.80;;;;;;5052873;28;19928;-75
2022/11/15 01:19:32;;;;;;;;;;;8.90;97.80;;;;;;5057403;28;19944;-74
2022/11/15 01:21:59;;;;;;;;;;;8.90;97.80;;;;;;5056194;28;19933;-75
2022/11/15 01:24:26;;;;;;;;;;;8.80;97.70;;;;;;5064058;28;19928;-75
2022/11/15 01:26:52;;;;;;;;;;;8.90;97.80;;;;;;5051161;28;19932;-75
2022/11/15 01:29:19;;;;;;;;;;;8.90;97.80;;;;;;5055827;28;19933;-75
2022/11/15 01:31:45;;;;;;;;;;;8.90;97.80;;;;;;5057331;28;20410;-74
2022/11/15 01:34:14;;;;;;;;;;;8.80;97.70;;;;;;5052403;28;19929;-76
2022/11/15 01:36:41;;;;;;;;;;;8.80;97.70;;;;;;5051735;28;19924;-73
2022/11/15 01:39:08;;;;;;;;;;;8.80;97.70;;;;;;5061857;28;19928;-74
2022/11/15 01:41:35;;;;;;;;;;;8.90;97.80;;;;;;5061595;28;19928;-74
2022/11/15 01:44:16;;;;;;;;;;;8.90;97.80;;;;;;5057841;28;19928;-75
2022/11/15 01:46:44;;;;;;;;;;;8.80;97.80;;;;;;5058778;28;19924;-74
2022/11/15 01:49:13;;;;;;;;;;;8.90;97.80;;;;;;5048441;28;19935;-75
2022/11/15 01:51:41;;;;;;;;;;;8.80;97.80;;;;;;5060358;28;19928;-74
2022/11/15 01:54:09;;;;;;;;;;;8.80;97.80;;;;;;5054074;28;20405;-74
2022/11/15 01:56:37;;;;;;;;;;;8.80;97.80;;;;;;5061905;28;19955;-74
2022/11/15 01:59:05;;;;;;;;;;;8.80;97.80;;;;;;5052709;28;19936;-74
2022/11/15 02:01:33;;;;;;;;;;;8.80;97.80;;;;;;5053398;28;19928;-74
2022/11/15 02:04:00;;;;;;;;;;;8.80;97.80;;;;;;5057263;28;19933;-75
2022/11/15 02:06:27;;;;;;;;;;;8.80;97.80;;;;;;5062504;28;19928;-74
2022/11/15 02:08:55;;;;;;;;;;;8.80;97.90;;;;;;5058932;28;19933;-74
2022/11/15 02:11:21;;;;;;;;;;;8.80;97.90;;;;;;5054393;28;19928;-75
2022/11/15 02:13:48;;;;;;;;;;;8.80;97.90;;;;;;5056673;28;19933;-75
2022/11/15 02:16:21;;;;;;;;;;;8.80;97.90;;;;;;5059718;28;19931;-74
2022/11/15 02:18:50;;;;;;;;;;;8.80;97.90;;;;;;5057153;28;19928;-74
2022/11/15 02:21:19;;;;;;;;;;;8.80;97.90;;;;;;5056786;28;19935;-74
2022/11/15 02:24:13;;;;;;;;;;;8.80;97.90;;;;;;5057795;28;19928;-74
2022/11/15 02:27:01;;;;;;;;;;;8.80;97.90;;;;;;5056199;28;19932;-74
2022/11/15 02:29:37;;;;;;;;;;;8.80;97.90;;;;;;5052308;28;20393;-73
2022/11/15 02:32:08;;;;;;;;;;;8.80;97.90;;;;;;5051930;28;19928;-75
2022/11/15 02:34:39;;;;;;;;;;;8.80;97.90;;;;;;5057702;28;19932;-75
2022/11/15 02:37:12;;;;;;;;;;;8.80;98.00;;;;;;5056240;28;19982;-74
2022/11/15 02:39:41;;;;;;;;;;;8.80;97.90;;;;;;5059811;28;19936;-74
2022/11/15 02:43:56;;;;;;;;;;;8.80;97.90;;;;;;5053038;28;20660;-75
2022/11/15 02:44:56;;;;;;;;;;;8.80;98.00;;;;;;5059380;28;19935;-75
2022/11/15 02:47:25;;;;;;;;;;;8.80;98.00;;;;;;5054707;28;19932;-74
2022/11/15 02:49:53;;;;;;;;;;;8.80;98.00;;;;;;5052869;28;19932;-75
2022/11/15 02:52:21;;;;;;;;;;;8.80;98.00;;;;;;5057391;28;20300;-74
2022/11/15 02:54:53;;;;;;;;;;;8.80;98.00;;;;;;5054777;28;19924;-75
2022/11/15 02:57:21;;;;;;;;;;;8.80;98.00;;;;;;5045468;28;19929;-75
2022/11/15 02:59:56;;;;;;;;;;;8.80;98.00;;;;;;5057946;28;20778;-75
2022/11/15 03:02:31;;;;;;;;;;;8.80;98.00;;;;;;5058661;28;19943;-74
2022/11/15 03:04:59;;;;;;;;;;;8.80;98.10;;;;;;5056310;28;20376;-75
2022/11/15 03:07:30;;;;;;;;;;;8.80;98.10;;;;;;5060442;28;19925;-74
2022/11/15 03:10:00;;;;;;;;;;;8.80;98.10;;;;;;5059603;28;19935;-74
2022/11/15 03:12:29;;;;;;;;;;;8.80;98.10;;;;;;5054292;28;19936;-74
2022/11/15 03:14:59;;;;;;;;;;;8.80;98.10;;;;;;5060016;28;19935;-75
2022/11/15 03:17:29;;;;;;;;;;;8.80;98.10;;;;;;5057474;28;19935;-76
2022/11/15 03:19:57;;;;;;;;;;;8.70;98.00;;;;;;5057121;28;19929;-75
2022/11/15 03:22:26;;;;;;;;;;;8.80;98.10;;;;;;5062444;28;19928;-74
2022/11/15 03:24:54;;;;;;;;;;;8.80;98.00;;;;;;5062330;28;20130;-75
2022/11/15 03:27:22;;;;;;;;;;;8.80;98.40;;;;;;5054775;28;19931;-72
2022/11/15 03:29:51;;;;;;;;;;;8.80;98.00;;;;;;5061410;28;19932;-75
2022/11/15 03:32:20;;;;;;;;;;;8.80;98.00;;;;;;5054015;28;19938;-75
2022/11/15 03:34:50;;;;;;;;;;;8.80;98.10;;;;;;5061011;28;19934;-76
2022/11/15 03:37:17;;;;;;;;;;;8.80;98.00;;;;;;5055586;28;20460;-76
2022/11/15 03:39:44;;;;;;;;;;;8.80;98.10;;;;;;5058343;28;19932;-74
2022/11/15 03:42:18;;;;;;;;;;;8.80;98.00;;;;;;5052874;28;20431;-74
2022/11/15 03:44:47;;;;;;;;;;;8.70;98.00;;;;;;5058559;28;19932;-75
2022/11/15 03:47:17;;;;;;;;;;;8.80;98.10;;;;;;5058373;28;20479;-74
2022/11/15 03:49:45;;;;;;;;;;;8.80;98.10;;;;;;5057370;28;19933;-74
2022/11/15 03:52:13;;;;;;;;;;;8.80;98.10;;;;;;5051493;28;20003;-74
2022/11/15 03:54:48;;;;;;;;;;;8.80;98.10;;;;;;5060525;28;19932;-74
2022/11/15 03:57:15;;;;;;;;;;;8.80;98.20;;;;;;5056981;28;20661;-74
2022/11/15 03:59:41;;;;;;;;;;;8.80;98.10;;;;;;5052842;28;19924;-74
2022/11/15 04:02:08;;;;;;;;;;;8.80;98.10;;;;;;5052768;28;19935;-73
2022/11/15 04:04:34;;;;;;;;;;;8.80;98.10;;;;;;5055389;28;19932;-74
2022/11/15 04:07:01;;;;;;;;;;;8.80;98.20;;;;;;5054413;28;19936;-75
2022/11/15 04:09:29;;;;;;;;;;;8.80;98.20;;;;;;5056169;28;19940;-74
2022/11/15 04:11:55;;;;;;;;;;;8.80;98.20;;;;;;5055107;28;19929;-76
2022/11/15 04:14:22;;;;;;;;;;;8.80;98.20;;;;;;5057254;28;20450;-73
2022/11/15 04:16:48;;;;;;;;;;;8.90;98.20;;;;;;5052010;28;19932;-74
2022/11/15 04:24:44;;;;;;;;;;;8.80;98.20;;;;;;5050056;28;20772;-74
2022/11/15 04:27:15;;;;;;;;;;;8.80;98.20;;;;;;5055736;28;20439;-73
2022/11/15 04:29:42;;;;;;;;;;;8.90;98.20;;;;;;5057164;28;20531;-75
2022/11/15 04:32:08;;;;;;;;;;;8.90;98.20;;;;;;5055067;28;19936;-74
2022/11/15 04:34:35;;;;;;;;;;;8.80;98.20;;;;;;5052442;28;19932;-75
2022/11/15 04:37:13;;;;;;;;;;;8.90;98.30;;;;;;5055519;28;19986;-74
2022/11/15 04:39:40;;;;;;;;;;;8.80;98.20;;;;;;5055213;28;19932;-75
2022/11/15 04:42:08;;;;;;;;;;;8.90;98.30;;;;;;5056947;28;19928;-75
2022/11/15 04:44:35;;;;;;;;;;;8.90;98.30;;;;;;5054383;28;19936;-74
2022/11/15 04:47:02;;;;;;;;;;;8.90;98.30;;;;;;5054752;28;19937;-74
2022/11/15 04:49:28;;;;;;;;;;;8.90;98.30;;;;;;5050059;28;19929;-74
2022/11/15 04:51:55;;;;;;;;;;;8.90;98.30;;;;;;5054711;28;19928;-74
2022/11/15 04:54:21;;;;;;;;;;;8.90;98.30;;;;;;5055419;28;19929;-75
2022/11/15 04:56:48;;;;;;;;;;;8.90;98.30;;;;;;5047314;28;19940;-75
2022/11/15 04:59:16;;;;;;;;;;;8.90;98.30;;;;;;5054318;28;19964;-74
2022/11/15 05:01:42;;;;;;;;;;;8.90;98.30;;;;;;5055489;28;19925;-74
2022/11/15 05:04:20;;;;;;;;;;;8.90;98.30;;;;;;5048827;28;20435;-75
2022/11/15 05:06:47;;;;;;;;;;;8.90;98.20;;;;;;5058113;28;20412;-75
2022/11/15 05:09:14;;;;;;;;;;;8.90;98.20;;;;;;5049846;28;19929;-75
2022/11/15 05:11:41;;;;;;;;;;;8.90;98.20;;;;;;5052572;28;19939;-74
2022/11/15 05:14:07;;;;;;;;;;;8.90;98.20;;;;;;5052540;28;20423;-75
2022/11/15 05:16:35;;;;;;;;;;;8.90;98.10;;;;;;5056112;28;19928;-74
2022/11/15 05:19:02;;;;;;;;;;;9.00;98.30;;;;;;5053703;28;20736;-75
2022/11/15 05:21:29;;;;;;;;;;;9.00;98.10;;;;;;5051188;28;19933;-73
2022/11/15 05:23:55;;;;;;;;;;;9.00;98.20;;;;;;5054222;28;19948;-75
2022/11/15 05:26:22;;;;;;;;;;;9.00;98.70;;;;;;5059847;28;20319;-73
2022/11/15 05:28:52;;;;;;;;;;;9.00;98.70;;;;;;5056914;28;19967;-73
2022/11/15 05:31:19;;;;;;;;;;;9.00;98.70;;;;;;5050852;28;19935;-72
2022/11/15 05:33:47;;;;;;;;;;;9.00;98.60;;;;;;5059103;28;19924;-73
2022/11/15 05:36:18;;;;;;;;;;;9.00;98.50;;;;;;5057676;28;19955;-73
2022/11/15 05:38:44;;;;;;;;;;;9.00;98.50;;;;;;5059434;28;20545;-72
2022/11/15 05:41:11;;;;;;;;;;;9.00;98.50;;;;;;5060895;28;19939;-73
2022/11/15 05:43:39;;;;;;;;;;;9.00;98.40;;;;;;5054455;28;19963;-73
2022/11/15 05:46:05;;;;;;;;;;;9.00;98.40;;;;;;5061327;28;19936;-73
2022/11/15 05:48:32;;;;;;;;;;;9.00;98.30;;;;;;5052681;28;20003;-74
2022/11/15 05:51:00;;;;;;;;;;;9.00;98.30;;;;;;5060955;28;20384;-73
2022/11/15 05:53:27;;;;;;;;;;;9.00;98.30;;;;;;5061983;28;19928;-73
2022/11/15 05:55:54;;;;;;;;;;;9.00;98.30;;;;;;5060965;28;19936;-73
2022/11/15 05:58:21;;;;;;;;;;;9.00;98.30;;;;;;5058940;28;19928;-74
2022/11/15 06:00:47;;;;;;;;;;;8.90;98.20;;;;;;5058224;28;19928;-74
2022/11/15 06:03:14;;;;;;;;;;;9.00;98.30;;;;;;5051676;28;20476;-73
2022/11/15 06:05:41;;;;;;;;;;;9.00;98.20;;;;;;5058822;28;20407;-74
2022/11/15 06:08:09;;;;;;;;;;;9.00;98.20;;;;;;5058377;28;19936;-73
2022/11/15 06:10:35;;;;;;;;;;;9.00;98.20;;;;;;5055565;28;19929;-72
2022/11/15 06:13:03;;;;;;;;;;;9.00;98.20;;;;;;5053696;28;19928;-73
2022/11/15 06:15:29;;;;;;;;;;;9.00;98.20;;;;;;5056225;28;19936;-73
2022/11/15 06:17:57;;;;;;;;;;;9.00;98.20;;;;;;5056584;28;19928;-73
2022/11/15 06:20:23;;;;;;;;;;;9.00;98.20;;;;;;5059714;28;19924;-73
2022/11/15 06:22:50;;;;;;;;;;;9.00;98.10;;;;;;5058719;28;19928;-73
2022/11/15 06:25:18;;;;;;;;;;;8.90;98.10;;;;;;5055480;28;20411;-73
2022/11/15 06:27:44;;;;;;;;;;;9.00;98.10;;;;;;5055643;28;19929;-72
2022/11/15 06:30:11;;;;;;;;;;;9.00;98.10;;;;;;5053262;28;21191;-73
2022/11/15 06:32:38;;;;;;;;;;;9.00;98.10;;;;;;5055787;28;19928;-73
2022/11/15 06:35:05;;;;;;;;;;;9.00;98.10;;;;;;5058341;28;19959;-73
2022/11/15 06:37:31;;;;;;;;;;;9.00;98.10;;;;;;5055773;28;20424;-72
2022/11/15 06:39:58;;;;;;;;;;;8.90;98.10;;;;;;5059738;28;19928;-73
2022/11/15 06:42:26;;;;;;;;;;;8.90;98.10;;;;;;5055640;28;20778;-72
2022/11/15 06:44:52;;;;;;;;;;;9.00;98.10;;;;;;5053971;28;19928;-73
2022/11/15 06:47:19;;;;;;;;;;;8.90;98.10;;;;;;5058417;28;19935;-68
2022/11/15 06:49:45;;;;;;;;;;;8.90;98.10;;;;;;5063948;28;19929;-67
2022/11/15 06:52:12;;;;;;;;;;;8.90;98.10;;;;;;5060899;28;19952;-67
2022/11/15 06:54:38;;;;;;;;;;;8.90;98.10;;;;;;5055819;28;19935;-68
2022/11/15 06:57:05;;;;;;;;;;;8.90;98.10;;;;;;5056305;28;19978;-67
2022/11/15 06:59:33;;;;;;;;;;;8.90;98.10;;;;;;5059195;28;19928;-67
2022/11/15 07:02:00;;;;;;;;;;;9.00;98.20;;;;;;5054808;28;19928;-68
2022/11/15 07:04:26;;;;;;;;;;;8.90;98.10;;;;;;5062012;28;19935;-68
2022/11/15 07:06:53;;;;;;;;;;;8.90;98.10;;;;;;5062730;28;19929;-68
2022/11/15 07:09:19;;;;;;;;;;;8.90;98.10;;;;;;5063909;28;20258;-67
2022/11/15 07:11:46;;;;;;;;;;;9.00;98.20;;;;;;5062406;28;19929;-68
2022/11/15 07:14:12;;;;;;;;;;;8.90;98.10;;;;;;5058572;28;19940;-68
2022/11/15 07:16:40;;;;;;;;;;;9.00;98.50;;;;;;5053924;28;20007;-67
2022/11/15 07:19:07;;;;;;;;;;;9.00;98.20;;;;;;5056301;28;19932;-67
2022/11/15 07:21:33;;;;;;;;;;;9.00;98.20;;;;;;5052801;28;19935;-67
2022/11/15 07:24:00;;;;;;;;;;;9.00;98.20;;;;;;5063429;28;19940;-68
2022/11/15 07:26:26;;;;;;;;;;;9.00;98.20;;;;;;5049204;28;19932;-68
2022/11/15 07:28:53;;;;;;;;;;;9.00;98.20;;;;;;5059991;28;19939;-68
2022/11/15 07:31:20;;;;;;;;;;;9.00;98.20;;;;;;5056089;28;19948;-68
2022/11/15 07:33:47;;;;;;;;;;;9.00;98.20;;;;;;5054150;28;19939;-74
2022/11/15 07:36:14;;;;;;;;;;;9.00;98.20;;;;;;5056755;28;19932;-72
2022/11/15 07:38:41;;;;;;;;;;;9.00;98.20;;;;;;5056423;28;19928;-73
2022/11/15 07:41:07;;;;;;;;;;;9.00;98.20;;;;;;5055489;28;19983;-72
2022/11/15 07:43:35;;;;;;;;;;;9.00;98.30;;;;;;5055252;28;19929;-74
2022/11/15 07:46:05;;;;;;;;;;;9.00;98.20;;;;;;5058263;28;20744;-73
2022/11/15 07:48:32;;;;;;;;;;;9.00;98.20;;;;;;5054518;28;19939;-73
2022/11/15 07:51:00;;;;;;;;;;;9.00;98.30;;;;;;5053868;28;20001;-73
2022/11/15 07:53:26;;;;;;;;;;;9.00;98.40;;;;;;5049949;28;19943;-71
2022/11/15 07:55:53;;;;;;;;;;;9.00;98.40;;;;;;5051463;28;19928;-73
2022/11/15 07:58:19;;;;;;;;;;;9.00;98.40;;;;;;5055517;28;20040;-71
2022/11/15 08:00:46;;;;;;;;;;;9.00;98.40;;;;;;5053016;28;19929;-73
2022/11/15 08:03:13;;;;;;;;;;;9.00;98.30;;;;;;5052760;28;19936;-73
2022/11/15 08:05:41;;;;;;;;;;;9.10;98.40;;;;;;5055581;28;19932;-73
2022/11/15 08:08:09;;;;;;;;;;;9.00;98.30;;;;;;5058753;28;19924;-73
2022/11/15 08:10:36;;;;;;;;;;;9.00;98.30;;;;;;5052883;28;19932;-73
2022/11/15 08:13:04;;;;;;;;;;;9.10;98.30;;;;;;5051309;28;19940;-73
2022/11/15 08:15:31;;;;;;;;;;;9.00;98.30;;;;;;5054899;28;19928;-73
2022/11/15 08:17:58;;;;;;;;;;;9.00;98.30;;;;;;5053035;28;19928;-73
2022/11/15 08:20:26;;;;;;;;;;;9.10;98.40;;;;;;5051892;28;19940;-72
2022/11/15 08:22:53;;;;;;;;;;;9.10;98.30;;;;;;5055179;28;19944;-73
2022/11/15 08:25:20;;;;;;;;;;;9.10;98.40;;;;;;5051170;28;19928;-73
2022/11/15 08:27:47;;;;;;;;;;;9.10;98.40;;;;;;5054028;28;19928;-73
2022/11/15 08:30:15;;;;;;;;;;;9.10;98.40;;;;;;5049560;28;20038;-73
2022/11/15 08:32:42;;;;;;;;;;;9.10;98.70;;;;;;5053754;28;19932;-73
2022/11/15 08:35:09;;;;;;;;;;;9.10;98.40;;;;;;5046731;28;20270;-73
2022/11/15 08:37:35;;;;;;;;;;;9.10;98.30;;;;;;5054476;28;20019;-73
2022/11/15 08:40:02;;;;;;;;;;;9.10;98.30;;;;;;5053275;28;19983;-73
2022/11/15 08:42:30;;;;;;;;;;;9.10;98.30;;;;;;5056561;28;20307;-72
2022/11/15 08:44:56;;;;;;;;;;;9.20;98.30;;;;;;5055863;28;19933;-73
2022/11/15 08:47:23;;;;;;;;;;;9.20;98.20;;;;;;5053269;28;19928;-73
2022/11/15 08:49:50;;;;;;;;;;;9.20;98.20;;;;;;5056060;28;20035;-72
2022/11/15 08:52:17;;;;;;;;;;;9.20;98.20;;;;;;5054393;28;19939;-73
2022/11/15 08:54:43;;;;;;;;;;;9.20;98.20;;;;;;5048736;28;19933;-73
2022/11/15 08:57:10;;;;;;;;;;;9.20;98.20;;;;;;5057596;28;19936;-72
2022/11/15 08:59:38;;;;;;;;;;;9.20;98.10;;;;;;5056080;28;20034;-73
2022/11/15 09:02:05;;;;;;;;;;;9.30;98.10;;;;;;5056073;28;19928;-73
2022/11/15 09:04:32;;;;;;;;;;;9.20;98.00;;;;;;5057369;28;20729;-73
2022/11/15 09:06:58;;;;;;;;;;;9.30;98.00;;;;;;5058624;28;19928;-73
2022/11/15 09:09:25;;;;;;;;;;;9.30;98.00;;;;;;5056425;28;19932;-73
2022/11/15 09:11:51;;;;;;;;;;;9.30;97.90;;;;;;5057777;28;19940;-72
2022/11/15 09:14:18;;;;;;;;;;;9.30;97.90;;;;;;5056485;28;19928;-73
2022/11/15 09:16:46;;;;;;;;;;;9.30;97.90;;;;;;5060590;28;19936;-73
2022/11/15 09:19:14;;;;;;;;;;;9.40;97.90;;;;;;5056577;28;19939;-72
2022/11/15 09:21:41;;;;;;;;;;;9.30;97.80;;;;;;5051884;28;19935;-72
2022/11/15 09:24:08;;;;;;;;;;;9.30;97.80;;;;;;5054848;28;19935;-73
2022/11/15 09:26:34;;;;;;;;;;;9.40;97.80;;;;;;5055501;28;19928;-73
2022/11/15 09:29:02;;;;;;;;;;;9.40;97.90;;;;;;5058341;28;19940;-73
2022/11/15 09:31:29;;;;;;;;;;;9.40;97.80;;;;;;5054240;28;19935;-73
2022/11/15 09:33:57;;;;;;;;;;;9.50;97.90;;;;;;5056140;28;20312;-74
2022/11/15 09:36:23;;;;;;;;;;;9.40;97.80;;;;;;5058474;28;20418;-73
2022/11/15 09:38:50;;;;;;;;;;;9.40;97.80;;;;;;5060197;28;19936;-73
2022/11/15 09:41:35;;;;;;;;;;;9.50;97.90;;;;;;5054362;28;19932;-73
2022/11/15 09:44:07;;;;;;;;;;;9.50;97.80;;;;;;5057476;28;19928;-73
2022/11/15 09:46:38;;;;;;;;;;;9.50;97.80;;;;;;5052515;28;19928;-73
2022/11/15 09:49:08;;;;;;;;;;;9.50;97.80;;;;;;5056296;28;19928;-73
2022/11/15 09:51:35;;;;;;;;;;;9.50;97.80;;;;;;5061853;28;19929;-73
2022/11/15 09:54:05;;;;;;;;;;;9.50;97.80;;;;;;5059578;28;19963;-73
2022/11/15 09:56:32;;;;;;;;;;;9.60;98.00;;;;;;5055310;28;19933;-72
2022/11/15 09:59:05;;;;;;;;;;;9.60;97.80;;;;;;5053946;28;20377;-73
2022/11/15 10:01:37;;;;;;;;;;;9.60;97.80;;;;;;5056332;28;20693;-72
2022/11/15 10:04:04;;;;;;;;;;;9.60;97.80;;;;;;5053756;28;20172;-72
2022/11/15 10:06:33;;;;;;;;;;;9.60;97.80;;;;;;5056961;28;19929;-72
2022/11/15 10:09:02;;;;;;;;;;;9.60;97.80;;;;;;5055165;28;19934;-72
2022/11/15 10:11:30;;;;;;;;;;;9.70;98.00;;;;;;5058479;28;19928;-73
2022/11/15 10:13:57;;;;;;;;;;;9.70;97.80;;;;;;5060797;28;20054;-72
2022/11/15 10:16:42;;;;;;;;;;;9.70;97.80;;;;;;5056939;28;19928;-71
2022/11/15 10:19:15;;;;;;;;;;;9.70;97.80;;;;;;5057622;28;19935;-74
2022/11/15 10:21:50;;;;;;;;;;;9.70;97.80;;;;;;5053309;28;19932;-75
2022/11/15 10:24:19;;;;;;;;;;;9.70;97.80;;;;;;5054251;28;19971;-68
2022/11/15 10:26:46;;;;;;;;;;;9.80;97.80;;;;;;5061446;28;19939;-67
2022/11/15 10:29:18;;;;;;;;;;;9.80;97.80;;;;;;5059518;28;20194;-67
2022/11/15 10:31:44;;;;;;;;;;;9.80;97.80;;;;;;5055153;28;20008;-72
2022/11/15 10:34:13;;;;;;;;;;;9.80;97.80;;;;;;5049775;28;20405;-72
2022/11/15 10:36:44;;;;;;;;;;;9.80;97.70;;;;;;5055324;28;19932;-72
2022/11/15 10:39:14;;;;;;;;;;;9.80;97.70;;;;;;5051965;28;19974;-72
2022/11/15 10:41:41;;;;;;;;;;;9.90;97.70;;;;;;5055601;28;19968;-71
2022/11/15 10:44:32;;;;;;;;;;;9.80;97.70;;;;;;5057751;28;19933;-71
2022/11/15 10:47:06;;;;;;;;;;;9.90;97.70;;;;;;5053729;28;20018;-72
2022/11/15 10:49:33;;;;;;;;;;;9.90;97.70;;;;;;5054222;28;19928;-72
2022/11/15 10:52:01;;;;;;;;;;;9.90;97.70;;;;;;5051036;28;19960;-71
2022/11/15 10:54:31;;;;;;;;;;;9.90;97.60;;;;;;5048105;28;19933;-71
2022/11/15 10:56:59;;;;;;;;;;;9.90;97.60;;;;;;5052559;28;19936;-72
2022/11/15 10:59:27;;;;;;;;;;;9.90;97.60;;;;;;5055189;28;19929;-73
2022/11/15 11:01:54;;;;;;;;;;;10.00;97.60;;;;;;5051715;28;20427;-71
2022/11/15 11:04:20;;;;;;;;;;;10.00;97.60;;;;;;5048605;28;19928;-71
2022/11/15 11:06:48;;;;;;;;;;;10.00;97.60;;;;;;5053729;28;19928;-72
2022/11/15 11:09:23;;;;;;;;;;;10.00;97.60;;;;;;5050167;28;19928;-71
2022/11/15 11:11:51;;;;;;;;;;;10.00;97.50;;;;;;5055277;28;19929;-72
2022/11/15 11:14:21;;;;;;;;;;;10.00;97.50;;;;;;5055336;28;20383;-73
2022/11/15 11:16:50;;;;;;;;;;;10.00;97.50;;;;;;5050957;28;19929;-72
2022/11/15 11:19:22;;;;;;;;;;;10.10;97.50;;;;;;5055972;28;20556;-73
2022/11/15 11:21:52;;;;;;;;;;;10.10;97.50;;;;;;5046784;28;19933;-72
2022/11/15 11:24:25;;;;;;;;;;;10.10;97.50;;;;;;5055409;28;19935;-72
2022/11/15 11:27:00;;;;;;;;;;;10.10;97.50;;;;;;5048754;28;20475;-71
2022/11/15 11:29:34;;;;;;;;;;;10.10;97.50;;;;;;5054653;28;19936;-71
2022/11/15 11:32:04;;;;;;;;;;;10.20;97.50;;;;;;5046446;28;19986;-72
2022/11/15 11:34:37;;;;;;;;;;;10.20;97.40;;;;;;5048899;28;21514;-71
2022/11/15 11:37:05;;;;;;;;;;;10.20;97.40;;;;;;5047163;28;19929;-71
2022/11/15 11:39:37;;;;;;;;;;;10.20;97.40;;;;;;5045782;28;19939;-71
2022/11/15 11:42:15;;;;;;;;;;;10.30;97.40;;;;;;5052108;28;20432;-71
2022/11/15 11:44:47;;;;;;;;;;;10.30;97.30;;;;;;5052523;28;19929;-71
2022/11/15 11:47:18;;;;;;;;;;;10.30;97.30;;;;;;5054591;28;19939;-71
2022/11/15 11:49:47;;;;;;;;;;;10.30;97.30;;;;;;5052992;28;19932;-71
2022/11/15 11:52:17;;;;;;;;;;;10.30;97.20;;;;;;5053694;28;19936;-71
2022/11/15 11:54:48;;;;;;;;;;;10.40;97.30;;;;;;5055648;28;19940;-71
2022/11/15 11:57:22;;;;;;;;;;;10.40;97.30;;;;;;5053908;28;19928;-71
2022/11/15 11:59:50;;;;;;;;;;;10.40;97.20;;;;;;5052017;28;20622;-71
2022/11/15 12:02:19;;;;;;;;;;;10.40;97.20;;;;;;5050879;28;19939;-72
2022/11/15 12:04:49;;;;;;;;;;;10.40;97.20;;;;;;5049786;28;20008;-71
2022/11/15 12:07:18;;;;;;;;;;;10.40;97.20;;;;;;5055327;28;19928;-71
2022/11/15 12:09:47;;;;;;;;;;;10.40;97.30;;;;;;5052875;28;19928;-71
2022/11/15 12:12:18;;;;;;;;;;;10.50;97.30;;;;;;5052733;28;19925;-71
2022/11/15 12:14:48;;;;;;;;;;;10.50;97.30;;;;;;5054700;28;20006;-71
2022/11/15 12:17:17;;;;;;;;;;;10.50;97.30;;;;;;5053994;28;19932;-71
2022/11/15 12:19:43;;;;;;;;;;;10.50;97.30;;;;;;5055404;28;19932;-71
2022/11/15 12:22:13;;;;;;;;;;;10.50;97.30;;;;;;5048631;28;19935;-71
2022/11/15 12:24:42;;;;;;;;;;;10.50;97.30;;;;;;5052238;28;19935;-71
2022/11/15 12:27:15;;;;;;;;;;;10.60;97.30;;;;;;5057901;28;19929;-71
2022/11/15 12:29:44;;;;;;;;;;;10.50;97.30;;;;;;5053445;28;19940;-73
2022/11/15 12:32:18;;;;;;;;;;;10.60;97.60;;;;;;5048936;28;20296;-71
2022/11/15 12:34:46;;;;;;;;;;;10.50;97.30;;;;;;5052071;28;20769;-70
2022/11/15 12:37:33;;;;;;;;;;;10.60;97.40;;;;;;5055478;28;19932;-71
2022/11/15 12:40:19;;;;;;;;;;;10.60;97.40;;;;;;5052044;28;20296;-70
2022/11/15 12:42:57;;;;;;;;;;;10.60;97.40;;;;;;5054726;28;20342;-71
2022/11/15 12:45:25;;;;;;;;;;;10.60;97.30;;;;;;5063264;28;19984;-71
2022/11/15 12:47:53;;;;;;;;;;;10.70;97.30;;;;;;5055627;28;19975;-71
2022/11/15 12:50:35;;;;;;;;;;;10.70;97.30;;;;;;5058564;28;19932;-71
2022/11/15 12:53:20;;;;;;;;;;;10.70;97.30;;;;;;5052540;28;20383;-70
2022/11/15 12:56:07;;;;;;;;;;;10.70;97.30;;;;;;5053769;28;19929;-71
2022/11/15 12:58:41;;;;;;;;;;;10.70;97.30;;;;;;5059005;28;19928;-70
2022/11/15 13:01:08;;;;;;;;;;;10.70;97.30;;;;;;5056659;28;20015;-66
2022/11/15 13:03:36;;;;;;;;;;;10.80;97.30;;;;;;5056202;28;20574;-66
2022/11/15 13:06:10;;;;;;;;;;;10.80;97.30;;;;;;5063673;28;19928;-66
2022/11/15 13:08:41;;;;;;;;;;;10.80;97.40;;;;;;5058994;28;19929;-66
2022/11/15 13:11:26;;;;;;;;;;;10.90;97.40;;;;;;5057372;28;19928;-66
2022/11/15 13:13:53;;;;;;;;;;;10.90;97.30;;;;;;5058592;28;20392;-66
2022/11/15 13:16:20;;;;;;;;;;;11.00;97.30;;;;;;5061641;28;19963;-67
2022/11/15 13:18:55;;;;;;;;;;;11.00;97.20;;;;;;5063613;28;19932;-66
2022/11/15 13:24:17;;;;;;;;;;;11.10;97.20;;;;;;5014574;28;19969;-66
2022/11/15 13:26:43;;;;;;;;;;;11.10;97.20;;;;;;5063289;28;19928;-66
2022/11/15 13:29:15;;;;;;;;;;;11.10;97.10;;;;;;5058646;28;19947;-66
2022/11/15 13:31:43;;;;;;;;;;;11.20;97.10;;;;;;5054011;28;19935;-66
2022/11/15 13:34:32;;;;;;;;;;;11.20;97.10;;;;;;5058334;28;20452;-67
2022/11/15 13:37:00;;;;;;;;;;;11.20;97.10;;;;;;5059768;28;19935;-66
2022/11/15 13:39:29;;;;;;;;;;;11.20;97.10;;;;;;5058847;28;19955;-70
2022/11/15 13:41:56;;;;;;;;;;;11.30;97.10;;;;;;5060864;28;19936;-70
2022/11/15 13:44:23;;;;;;;;;;;11.30;97.10;;;;;;5054168;28;20740;-71
2022/11/15 13:47:01;;;;;;;;;;;11.30;97.00;;;;;;5055467;28;19932;-71
2022/11/15 13:49:30;;;;;;;;;;;11.40;97.10;;;;;;5052915;28;19936;-71
2022/11/15 13:51:57;;;;;;;;;;;11.40;97.00;;;;;;5052172;28;19935;-71
2022/11/15 13:54:26;;;;;;;;;;;11.40;97.30;;;;;;5054341;28;19931;-71
2022/11/15 13:56:55;;;;;;;;;;;11.40;97.00;;;;;;5053296;28;19933;-71
2022/11/15 13:59:25;;;;;;;;;;;11.50;97.00;;;;;;5057602;28;19935;-71
2022/11/15 14:01:52;;;;;;;;;;;11.50;97.00;;;;;;5050397;28;19982;-71
2022/11/15 14:04:20;;;;;;;;;;;11.50;97.10;;;;;;5055698;28;20008;-70
2022/11/15 14:06:48;;;;;;;;;;;11.50;97.10;;;;;;5054462;28;20004;-71
2022/11/15 14:09:30;;;;;;;;;;;11.50;97.10;;;;;;5050169;28;20691;-71
2022/11/15 14:11:57;;;;;;;;;;;11.50;97.10;;;;;;5058552;28;20017;-71
2022/11/15 14:14:25;;;;;;;;;;;11.50;97.10;;;;;;5052830;28;20313;-72
2022/11/15 14:16:53;;;;;;;;;;;11.50;97.10;;;;;;5058827;28;20012;-71
2022/11/15 14:19:36;;;;;;;;;;;11.50;97.20;;;;;;5056500;28;19929;-72
2022/11/15 14:22:14;;;;;;;;;;;11.50;97.20;;;;;;5062967;28;19932;-71
2022/11/15 14:24:43;;;;;;;;;;;11.50;97.20;;;;;;5060055;28;19967;-71
2022/11/15 14:27:17;;;;;;;;;;;11.60;97.20;;;;;;5060788;28;20701;-70
2022/11/15 14:29:43;;;;;;;;;;;11.50;97.20;;;;;;5052112;28;20659;-71
2022/11/15 14:32:13;;;;;;;;;;;11.60;97.20;;;;;;5051986;28;19936;-72
2022/11/15 14:34:40;;;;;;;;;;;11.50;97.30;;;;;;5051422;28;19928;-72
2022/11/15 14:37:20;;;;;;;;;;;11.60;97.30;;;;;;5049275;28;19939;-72
2022/11/15 14:39:48;;;;;;;;;;;11.60;97.30;;;;;;5053217;28;19936;-71
2022/11/15 14:42:15;;;;;;;;;;;11.60;97.50;;;;;;5050671;28;19929;-71
2022/11/15 14:44:42;;;;;;;;;;;11.60;97.30;;;;;;5054192;28;19940;-71